THY5255 OEMA-LTFM
Flight info
| Callsign | THY5255 |
|---|---|
| Flight time | N/A |
| Altitude | 36000 |
| Route | PEGUR Z712 WEJ L677 GESON DCT LAGVI Q777 RASDA M855 TOMBI UM855 SISPI |
| Aircraft | B77W/H-SDE1E2E3FGHIJ2J3J4J5M1RWXY/LB1D1 |
Departure
| Time | 2026-05-09 14:12 |
|---|---|
| Airport | Prince Mohammad Bin Abdulaziz Airport (OEMA) |
Arrival
| Time | N/A |
|---|---|
| Airport | İstanbul Airport (LTFM) |
| Time | Latitude | Longitude | Altitude | Speed | Heading |
|---|---|---|---|---|---|
| 2026-05-09 13:45 | 24.55469 | 39.71279 | 2103 ft | 0 kts | 78° |
| 2026-05-09 14:01 | 24.55469 | 39.71278 | 2103 ft | 2 kts | 78° |
| 2026-05-09 14:02 | 24.55465 | 39.71260 | 2103 ft | 2 kts | 75° |
| 2026-05-09 14:02 | 24.55460 | 39.71243 | 2104 ft | 2 kts | 69° |
| 2026-05-09 14:02 | 24.55454 | 39.71227 | 2104 ft | 2 kts | 61° |
| 2026-05-09 14:02 | 24.55445 | 39.71211 | 2104 ft | 2 kts | 47° |
| 2026-05-09 14:03 | 24.55433 | 39.71200 | 2105 ft | 2 kts | 24° |
| 2026-05-09 14:03 | 24.55417 | 39.71195 | 2104 ft | 2 kts | 360° |
| 2026-05-09 14:03 | 24.55405 | 39.71196 | 2103 ft | 1 kts | 351° |
| 2026-05-09 14:03 | 24.55404 | 39.71196 | 2103 ft | 0 kts | 350° |
| 2026-05-09 14:04 | 24.55417 | 39.71194 | 2104 ft | 6 kts | 350° |
| 2026-05-09 14:04 | 24.55459 | 39.71185 | 2104 ft | 6 kts | 349° |
| 2026-05-09 14:05 | 24.55500 | 39.71176 | 2103 ft | 6 kts | 349° |
| 2026-05-09 14:05 | 24.55542 | 39.71167 | 2104 ft | 6 kts | 349° |
| 2026-05-09 14:05 | 24.55593 | 39.71156 | 2105 ft | 10 kts | 349° |
| 2026-05-09 14:05 | 24.55687 | 39.71136 | 2107 ft | 17 kts | 349° |
| 2026-05-09 14:06 | 24.55767 | 39.71119 | 2109 ft | 18 kts | 349° |
| 2026-05-09 14:06 | 24.55888 | 39.71092 | 2111 ft | 18 kts | 347° |
| 2026-05-09 14:06 | 24.56000 | 39.71066 | 2114 ft | 7 kts | 338° |
| 2026-05-09 14:06 | 24.56014 | 39.71015 | 2114 ft | 8 kts | 263° |
| 2026-05-09 14:07 | 24.56005 | 39.70956 | 2113 ft | 8 kts | 259° |
| 2026-05-09 14:07 | 24.55998 | 39.70892 | 2112 ft | 9 kts | 282° |
| 2026-05-09 14:07 | 24.56018 | 39.70864 | 2112 ft | 2 kts | 330° |
| 2026-05-09 14:07 | 24.56061 | 39.70849 | 2113 ft | 13 kts | 350° |
| 2026-05-09 14:08 | 24.56189 | 39.70833 | 2116 ft | 20 kts | 350° |
| 2026-05-09 14:08 | 24.56271 | 39.70799 | 2118 ft | 9 kts | 310° |
| 2026-05-09 14:08 | 24.56259 | 39.70749 | 2118 ft | 8 kts | 212° |
| 2026-05-09 14:08 | 24.56205 | 39.70720 | 2116 ft | 9 kts | 198° |
| 2026-05-09 14:09 | 24.56138 | 39.70691 | 2114 ft | 12 kts | 214° |
| 2026-05-09 14:09 | 24.56142 | 39.70618 | 2115 ft | 12 kts | 320° |
| 2026-05-09 14:09 | 24.56204 | 39.70561 | 2118 ft | 12 kts | 320° |
| 2026-05-09 14:09 | 24.56267 | 39.70504 | 2126 ft | 12 kts | 321° |
| 2026-05-09 14:10 | 24.56324 | 39.70405 | 2137 ft | 9 kts | 224° |
| 2026-05-09 14:10 | 24.56266 | 39.70390 | 2136 ft | 9 kts | 179° |
| 2026-05-09 14:10 | 24.56230 | 39.70388 | 2135 ft | 1 kts | 185° |
| 2026-05-09 14:11 | 24.56174 | 39.70383 | 2134 ft | 23 kts | 185° |
| 2026-05-09 14:11 | 24.55820 | 39.70358 | 2129 ft | 86 kts | 184° |
| 2026-05-09 14:11 | 24.54991 | 39.70299 | 2106 ft | 150 kts | 183° |
| 2026-05-09 14:11 | 24.53792 | 39.70205 | 2194 ft | 185 kts | 185° |
| 2026-05-09 14:12 | 24.52481 | 39.70103 | 2747 ft | 190 kts | 186° |
| 2026-05-09 14:12 | 24.51178 | 39.70042 | 3492 ft | 186 kts | 187° |
| 2026-05-09 14:12 | 24.49866 | 39.69994 | 4004 ft | 193 kts | 187° |
| 2026-05-09 14:12 | 24.48478 | 39.69887 | 4301 ft | 208 kts | 188° |
| 2026-05-09 14:13 | 24.47001 | 39.69762 | 4668 ft | 222 kts | 188° |
| 2026-05-09 14:14 | 24.34550 | 39.67998 | 8678 ft | 277 kts | 220° |
| 2026-05-09 14:15 | 24.33277 | 39.66379 | 9227 ft | 286 kts | 240° |
| 2026-05-09 14:15 | 24.32623 | 39.64330 | 9948 ft | 290 kts | 260° |
| 2026-05-09 14:15 | 24.32344 | 39.62102 | 10414 ft | 304 kts | 262° |
| 2026-05-09 14:15 | 24.32072 | 39.59702 | 10574 ft | 331 kts | 260° |
| 2026-05-09 14:16 | 24.31768 | 39.57100 | 10749 ft | 356 kts | 258° |
| 2026-05-09 14:16 | 24.31428 | 39.54330 | 11032 ft | 376 kts | 258° |
| 2026-05-09 14:16 | 24.31060 | 39.51447 | 11663 ft | 385 kts | 258° |
| 2026-05-09 14:16 | 24.30679 | 39.48515 | 12453 ft | 392 kts | 259° |
| 2026-05-09 14:17 | 24.30428 | 39.45530 | 13126 ft | 400 kts | 271° |
| 2026-05-09 14:17 | 24.31076 | 39.42537 | 13875 ft | 412 kts | 290° |
| 2026-05-09 14:17 | 24.32643 | 39.39854 | 14554 ft | 425 kts | 312° |
| 2026-05-09 14:17 | 24.35036 | 39.37990 | 15606 ft | 422 kts | 335° |
| 2026-05-09 14:18 | 24.37771 | 39.36920 | 16825 ft | 416 kts | 343° |
| 2026-05-09 14:18 | 24.40607 | 39.36275 | 17756 ft | 418 kts | 350° |
| 2026-05-09 14:18 | 24.43514 | 39.35857 | 18426 ft | 425 kts | 351° |
| 2026-05-09 14:18 | 24.46236 | 39.35535 | 18966 ft | 431 kts | 351° |
| 2026-05-09 14:19 | 24.49235 | 39.35172 | 19596 ft | 435 kts | 350° |
| 2026-05-09 14:19 | 24.52249 | 39.34770 | 20317 ft | 437 kts | 351° |
| 2026-05-09 14:19 | 24.55277 | 39.34340 | 21018 ft | 441 kts | 349° |
| 2026-05-09 14:19 | 24.58328 | 39.33894 | 21659 ft | 445 kts | 349° |
| 2026-05-09 14:20 | 24.61413 | 39.33440 | 22283 ft | 449 kts | 350° |
| 2026-05-09 14:20 | 24.64530 | 39.32982 | 22916 ft | 454 kts | 349° |
| 2026-05-09 14:20 | 24.67671 | 39.32522 | 23530 ft | 458 kts | 349° |
| 2026-05-09 14:21 | 24.74030 | 39.31591 | 24601 ft | 464 kts | 349° |
| 2026-05-09 14:21 | 24.77242 | 39.31121 | 25142 ft | 467 kts | 349° |
| 2026-05-09 14:21 | 24.80473 | 39.30649 | 25668 ft | 470 kts | 349° |
| 2026-05-09 14:21 | 24.83731 | 39.30171 | 26168 ft | 474 kts | 349° |
| 2026-05-09 14:22 | 24.87014 | 39.29689 | 26660 ft | 478 kts | 349° |
| 2026-05-09 14:22 | 24.90317 | 39.29204 | 27163 ft | 481 kts | 349° |
| 2026-05-09 14:22 | 24.93631 | 39.28652 | 27657 ft | 481 kts | 344° |
| 2026-05-09 14:22 | 24.96818 | 39.27553 | 28061 ft | 481 kts | 335° |
| 2026-05-09 14:23 | 24.99912 | 39.26126 | 28494 ft | 484 kts | 334° |
| 2026-05-09 14:23 | 25.03024 | 39.24665 | 28918 ft | 487 kts | 334° |
| 2026-05-09 14:23 | 25.06165 | 39.23240 | 29349 ft | 490 kts | 335° |
| 2026-05-09 14:23 | 25.09340 | 39.21858 | 29759 ft | 493 kts | 335° |
| 2026-05-09 14:24 | 25.12548 | 39.20497 | 30176 ft | 494 kts | 336° |
| 2026-05-09 14:24 | 25.15711 | 39.19161 | 30626 ft | 493 kts | 336° |
| 2026-05-09 14:24 | 25.18945 | 39.17780 | 31055 ft | 489 kts | 334° |
| 2026-05-09 14:24 | 25.21891 | 39.15942 | 31272 ft | 486 kts | 319° |
| 2026-05-09 14:25 | 25.24209 | 39.13341 | 31608 ft | 480 kts | 303° |
| 2026-05-09 14:25 | 25.26002 | 39.10209 | 31939 ft | 477 kts | 299° |
| 2026-05-09 14:25 | 25.27723 | 39.07127 | 32240 ft | 479 kts | 299° |
| 2026-05-09 14:25 | 25.29518 | 39.03972 | 32621 ft | 479 kts | 300° |
| 2026-05-09 14:26 | 25.31283 | 39.00913 | 33071 ft | 478 kts | 300° |
| 2026-05-09 14:26 | 25.33077 | 38.97828 | 33491 ft | 477 kts | 300° |
| 2026-05-09 14:26 | 25.34875 | 38.94752 | 33872 ft | 477 kts | 300° |
| 2026-05-09 14:26 | 25.36679 | 38.91668 | 34190 ft | 477 kts | 300° |
| 2026-05-09 14:27 | 25.38479 | 38.88590 | 34542 ft | 476 kts | 300° |
| 2026-05-09 14:27 | 25.40273 | 38.85520 | 34932 ft | 474 kts | 300° |
| 2026-05-09 14:27 | 25.42061 | 38.82457 | 35264 ft | 474 kts | 300° |
| 2026-05-09 14:27 | 25.43848 | 38.79391 | 35566 ft | 474 kts | 299° |
| 2026-05-09 14:28 | 25.45633 | 38.76326 | 35789 ft | 476 kts | 299° |
| 2026-05-09 14:28 | 25.47432 | 38.73232 | 35821 ft | 479 kts | 299° |
| 2026-05-09 14:28 | 25.51030 | 38.67044 | 35840 ft | 475 kts | 299° |
| 2026-05-09 14:29 | 25.54584 | 38.60927 | 35841 ft | 471 kts | 299° |
| 2026-05-09 14:29 | 25.58117 | 38.54832 | 35841 ft | 469 kts | 299° |
| 2026-05-09 14:30 | 25.61639 | 38.48749 | 35842 ft | 469 kts | 299° |
| 2026-05-09 14:30 | 25.65163 | 38.42654 | 35835 ft | 470 kts | 299° |
| 2026-05-09 14:31 | 25.68690 | 38.36547 | 35851 ft | 471 kts | 299° |
| 2026-05-09 14:31 | 25.72222 | 38.30425 | 35847 ft | 472 kts | 299° |
| 2026-05-09 14:32 | 25.75756 | 38.24289 | 35845 ft | 472 kts | 299° |
| 2026-05-09 14:32 | 25.79287 | 38.18151 | 35842 ft | 472 kts | 299° |
| 2026-05-09 14:33 | 25.82820 | 38.12002 | 35842 ft | 472 kts | 299° |
| 2026-05-09 14:33 | 25.86347 | 38.05855 | 35853 ft | 472 kts | 299° |
| 2026-05-09 14:34 | 25.89870 | 37.99706 | 35871 ft | 472 kts | 299° |
| 2026-05-09 14:34 | 25.93389 | 37.93554 | 35878 ft | 471 kts | 299° |
| 2026-05-09 14:35 | 25.96907 | 37.87399 | 35881 ft | 471 kts | 299° |
| 2026-05-09 14:35 | 25.99884 | 37.80989 | 35900 ft | 464 kts | 287° |
| 2026-05-09 14:36 | 26.01551 | 37.74118 | 35901 ft | 459 kts | 276° |
| 2026-05-09 14:36 | 26.02456 | 37.67104 | 35905 ft | 458 kts | 276° |
| 2026-05-09 14:37 | 26.03363 | 37.60141 | 35912 ft | 458 kts | 276° |
| 2026-05-09 14:37 | 26.04315 | 37.53137 | 35912 ft | 458 kts | 276° |
| 2026-05-09 14:38 | 26.05263 | 37.46126 | 35912 ft | 459 kts | 276° |
| 2026-05-09 14:38 | 26.06196 | 37.39105 | 35896 ft | 460 kts | 276° |
| 2026-05-09 14:39 | 26.07126 | 37.32074 | 35892 ft | 459 kts | 276° |
| 2026-05-09 14:39 | 26.08054 | 37.25042 | 35888 ft | 459 kts | 276° |
| 2026-05-09 14:40 | 26.08979 | 37.18020 | 35887 ft | 459 kts | 276° |
| 2026-05-09 14:40 | 26.09900 | 37.10997 | 35873 ft | 458 kts | 276° |
| 2026-05-09 14:41 | 26.10815 | 37.03989 | 35872 ft | 458 kts | 276° |
| 2026-05-09 14:41 | 26.11726 | 36.96985 | 35876 ft | 457 kts | 276° |
| 2026-05-09 14:42 | 26.12633 | 36.89991 | 35847 ft | 456 kts | 276° |
| 2026-05-09 14:42 | 26.13535 | 36.83000 | 35853 ft | 456 kts | 276° |
| 2026-05-09 14:43 | 26.14435 | 36.76009 | 35858 ft | 457 kts | 276° |
| 2026-05-09 14:43 | 26.15331 | 36.69007 | 35863 ft | 457 kts | 276° |
| 2026-05-09 14:44 | 26.16225 | 36.62002 | 35855 ft | 457 kts | 276° |
| 2026-05-09 14:44 | 26.17117 | 36.54998 | 35829 ft | 456 kts | 277° |
| 2026-05-09 14:45 | 26.17859 | 36.51559 | 35823 ft | 459 kts | 288° |
| 2026-05-09 14:45 | 26.19177 | 36.48319 | 35839 ft | 462 kts | 296° |
| 2026-05-09 14:45 | 26.23063 | 36.42598 | 35833 ft | 467 kts | 311° |
| 2026-05-09 14:46 | 26.27618 | 36.37475 | 35830 ft | 469 kts | 311° |
| 2026-05-09 14:46 | 26.32200 | 36.32316 | 35848 ft | 468 kts | 311° |
| 2026-05-09 14:47 | 26.36734 | 36.27124 | 35843 ft | 467 kts | 311° |
| 2026-05-09 14:47 | 26.41241 | 36.21919 | 35852 ft | 465 kts | 311° |
| 2026-05-09 14:48 | 26.45724 | 36.16730 | 35847 ft | 464 kts | 311° |
| 2026-05-09 14:48 | 26.50192 | 36.11555 | 35848 ft | 462 kts | 311° |
| 2026-05-09 14:49 | 26.54653 | 36.06384 | 35858 ft | 462 kts | 311° |
| 2026-05-09 14:49 | 26.59104 | 36.01219 | 35864 ft | 461 kts | 310° |
| 2026-05-09 14:50 | 26.63553 | 35.96050 | 35864 ft | 461 kts | 310° |
| 2026-05-09 14:50 | 26.68000 | 35.90876 | 35861 ft | 462 kts | 310° |
| 2026-05-09 14:51 | 26.72446 | 35.85698 | 35857 ft | 461 kts | 310° |
| 2026-05-09 14:51 | 26.76887 | 35.80519 | 35857 ft | 461 kts | 310° |
| 2026-05-09 14:52 | 26.81326 | 35.75338 | 35860 ft | 461 kts | 310° |
| 2026-05-09 14:52 | 26.85011 | 35.71033 | 35860 ft | 461 kts | 310° |
| 2026-05-09 14:53 | 26.89439 | 35.65853 | 35860 ft | 460 kts | 310° |
| 2026-05-09 14:53 | 26.93867 | 35.60667 | 35857 ft | 460 kts | 310° |
| 2026-05-09 14:54 | 26.98288 | 35.55481 | 35857 ft | 460 kts | 310° |
| 2026-05-09 14:54 | 27.02702 | 35.50298 | 35855 ft | 460 kts | 310° |
| 2026-05-09 14:55 | 27.07113 | 35.45112 | 35865 ft | 459 kts | 310° |
| 2026-05-09 14:55 | 27.11519 | 35.39925 | 35856 ft | 459 kts | 310° |
| 2026-05-09 14:56 | 27.15919 | 35.34739 | 35855 ft | 458 kts | 310° |
| 2026-05-09 14:56 | 27.20314 | 35.29553 | 35854 ft | 458 kts | 310° |
| 2026-05-09 14:57 | 27.24699 | 35.24372 | 35852 ft | 458 kts | 310° |
| 2026-05-09 14:57 | 27.29090 | 35.19177 | 35852 ft | 458 kts | 310° |
| 2026-05-09 14:58 | 27.33471 | 35.13988 | 35844 ft | 458 kts | 310° |
| 2026-05-09 14:58 | 27.37827 | 35.08822 | 35844 ft | 458 kts | 310° |
| 2026-05-09 14:59 | 27.42210 | 35.03617 | 35855 ft | 458 kts | 309° |
| 2026-05-09 14:59 | 27.46590 | 34.98409 | 35845 ft | 458 kts | 309° |
| 2026-05-09 15:00 | 27.50975 | 34.93194 | 35842 ft | 458 kts | 310° |
| 2026-05-09 15:00 | 27.55579 | 34.88199 | 35844 ft | 460 kts | 313° |
| 2026-05-09 15:01 | 27.62616 | 34.80833 | 35849 ft | 460 kts | 313° |
| 2026-05-09 15:02 | 27.67294 | 34.75898 | 35849 ft | 460 kts | 313° |
| 2026-05-09 15:02 | 27.71961 | 34.70950 | 35863 ft | 461 kts | 313° |
| 2026-05-09 15:03 | 27.76629 | 34.65993 | 35866 ft | 461 kts | 313° |
| 2026-05-09 15:03 | 27.81297 | 34.61031 | 35866 ft | 461 kts | 313° |
| 2026-05-09 15:04 | 27.85965 | 34.56064 | 35875 ft | 461 kts | 313° |
| 2026-05-09 15:06 | 28.03982 | 34.35636 | 35890 ft | 455 kts | 305° |
| 2026-05-09 15:06 | 28.07936 | 34.30101 | 35884 ft | 456 kts | 305° |
| 2026-05-09 15:07 | 28.11936 | 34.24528 | 35898 ft | 456 kts | 305° |
| 2026-05-09 15:07 | 28.15952 | 34.18955 | 35938 ft | 456 kts | 305° |
| 2026-05-09 15:08 | 28.19964 | 34.13386 | 35933 ft | 456 kts | 305° |
| 2026-05-09 15:08 | 28.25976 | 34.05029 | 35944 ft | 456 kts | 305° |
| 2026-05-09 15:10 | 28.42009 | 33.82652 | 35953 ft | 458 kts | 305° |
| 2026-05-09 15:11 | 28.46024 | 33.77035 | 35929 ft | 457 kts | 304° |
| 2026-05-09 15:11 | 28.50015 | 33.71436 | 35937 ft | 454 kts | 305° |
| 2026-05-09 15:12 | 28.53994 | 33.65853 | 35952 ft | 454 kts | 305° |
| 2026-05-09 15:12 | 28.57971 | 33.60251 | 35946 ft | 456 kts | 305° |
| 2026-05-09 15:13 | 28.61957 | 33.54633 | 35924 ft | 457 kts | 305° |
| 2026-05-09 15:13 | 28.65954 | 33.48998 | 35947 ft | 458 kts | 305° |
| 2026-05-09 15:14 | 28.69960 | 33.43352 | 35953 ft | 458 kts | 305° |
| 2026-05-09 15:14 | 28.73960 | 33.37707 | 35950 ft | 458 kts | 304° |
| 2026-05-09 15:15 | 28.77931 | 33.32095 | 35926 ft | 458 kts | 304° |
| 2026-05-09 15:15 | 28.81948 | 33.26406 | 35918 ft | 457 kts | 304° |
| 2026-05-09 15:16 | 28.85909 | 33.20791 | 35925 ft | 457 kts | 304° |
| 2026-05-09 15:16 | 28.89891 | 33.15137 | 35938 ft | 457 kts | 304° |
| 2026-05-09 15:17 | 28.93868 | 33.09483 | 35954 ft | 457 kts | 304° |
| 2026-05-09 15:17 | 28.97845 | 33.03820 | 35938 ft | 457 kts | 304° |
| 2026-05-09 15:18 | 29.01818 | 32.98157 | 35933 ft | 457 kts | 304° |
| 2026-05-09 15:18 | 29.05790 | 32.92487 | 35950 ft | 457 kts | 304° |
| 2026-05-09 15:19 | 29.09760 | 32.86811 | 35960 ft | 457 kts | 304° |
| 2026-05-09 15:19 | 29.13731 | 32.81127 | 35964 ft | 457 kts | 304° |
| 2026-05-09 15:20 | 29.19680 | 32.72596 | 35977 ft | 457 kts | 304° |
| 2026-05-09 15:21 | 29.23647 | 32.66897 | 35979 ft | 457 kts | 304° |
| 2026-05-09 15:21 | 29.27611 | 32.61195 | 35998 ft | 458 kts | 304° |
| 2026-05-09 15:22 | 29.31559 | 32.55479 | 36000 ft | 457 kts | 304° |
| 2026-05-09 15:22 | 29.35489 | 32.49743 | 36010 ft | 457 kts | 304° |
| 2026-05-09 15:23 | 29.39407 | 32.44020 | 36014 ft | 456 kts | 304° |
| 2026-05-09 15:23 | 29.43324 | 32.38289 | 36026 ft | 456 kts | 304° |
| 2026-05-09 15:24 | 29.47238 | 32.32559 | 36033 ft | 456 kts | 304° |
| 2026-05-09 15:24 | 29.51152 | 32.26822 | 36041 ft | 457 kts | 304° |
| 2026-05-09 15:25 | 29.55065 | 32.21079 | 36045 ft | 457 kts | 304° |
| 2026-05-09 15:25 | 29.58977 | 32.15330 | 36060 ft | 456 kts | 304° |
| 2026-05-09 15:26 | 29.64831 | 32.06708 | 36067 ft | 456 kts | 304° |
| 2026-05-09 15:26 | 29.68708 | 32.00989 | 36064 ft | 457 kts | 304° |
| 2026-05-09 15:27 | 29.72613 | 31.95219 | 36066 ft | 457 kts | 304° |
| 2026-05-09 15:27 | 29.76544 | 31.89403 | 36070 ft | 458 kts | 304° |
| 2026-05-09 15:28 | 29.80391 | 31.83625 | 36059 ft | 458 kts | 303° |
| 2026-05-09 15:28 | 29.84162 | 31.77724 | 36056 ft | 457 kts | 303° |
| 2026-05-09 15:29 | 29.87947 | 31.71827 | 36055 ft | 458 kts | 303° |
| 2026-05-09 15:29 | 29.90048 | 31.69082 | 36044 ft | 461 kts | 316° |
| 2026-05-09 15:29 | 29.92708 | 31.66968 | 36062 ft | 468 kts | 328° |
| 2026-05-09 15:30 | 29.95717 | 31.65474 | 36052 ft | 476 kts | 339° |
| 2026-05-09 15:30 | 29.98977 | 31.64720 | 36062 ft | 479 kts | 347° |
| 2026-05-09 15:30 | 30.05607 | 31.63649 | 36055 ft | 482 kts | 348° |
| 2026-05-09 15:31 | 30.12265 | 31.62556 | 36057 ft | 484 kts | 347° |
| 2026-05-09 15:31 | 30.18925 | 31.61388 | 36051 ft | 484 kts | 347° |
| 2026-05-09 15:32 | 30.25571 | 31.60189 | 36051 ft | 483 kts | 347° |
| 2026-05-09 15:32 | 30.32211 | 31.58988 | 36053 ft | 482 kts | 347° |
| 2026-05-09 15:33 | 30.38829 | 31.57793 | 36059 ft | 481 kts | 347° |
| 2026-05-09 15:33 | 30.45432 | 31.56600 | 36049 ft | 480 kts | 347° |
| 2026-05-09 15:34 | 30.52022 | 31.55408 | 36052 ft | 478 kts | 347° |
| 2026-05-09 15:34 | 30.58593 | 31.54217 | 36070 ft | 478 kts | 347° |
| 2026-05-09 15:35 | 30.65170 | 31.53023 | 36058 ft | 479 kts | 347° |
| 2026-05-09 15:35 | 30.71757 | 31.51827 | 36057 ft | 480 kts | 347° |
| 2026-05-09 15:36 | 30.78365 | 31.50625 | 36067 ft | 481 kts | 347° |
| 2026-05-09 15:36 | 30.84988 | 31.49423 | 36076 ft | 482 kts | 347° |
| 2026-05-09 15:37 | 30.91620 | 31.48218 | 36060 ft | 482 kts | 347° |
| 2026-05-09 15:37 | 30.98252 | 31.47010 | 36062 ft | 482 kts | 347° |
| 2026-05-09 15:38 | 31.04878 | 31.45801 | 36068 ft | 481 kts | 347° |
| 2026-05-09 15:38 | 31.11492 | 31.44593 | 36073 ft | 481 kts | 347° |
| 2026-05-09 15:39 | 31.18100 | 31.43383 | 36072 ft | 480 kts | 347° |
| 2026-05-09 15:39 | 31.24694 | 31.42175 | 36069 ft | 479 kts | 347° |
| 2026-05-09 15:40 | 31.30169 | 31.41160 | 36081 ft | 479 kts | 347° |
| 2026-05-09 15:40 | 31.36747 | 31.39924 | 36087 ft | 479 kts | 347° |
| 2026-05-09 15:41 | 31.43323 | 31.38688 | 36077 ft | 478 kts | 347° |
| 2026-05-09 15:41 | 31.49894 | 31.37455 | 36079 ft | 478 kts | 347° |
| 2026-05-09 15:42 | 31.56463 | 31.36268 | 36075 ft | 479 kts | 350° |
| 2026-05-09 15:42 | 31.63107 | 31.35553 | 36087 ft | 480 kts | 352° |
| 2026-05-09 15:43 | 31.69763 | 31.34924 | 36079 ft | 480 kts | 352° |
| 2026-05-09 15:43 | 31.76411 | 31.34255 | 36078 ft | 479 kts | 351° |
| 2026-05-09 15:44 | 31.83050 | 31.33567 | 36075 ft | 479 kts | 351° |
| 2026-05-09 15:44 | 31.89679 | 31.32880 | 36071 ft | 479 kts | 351° |
| 2026-05-09 15:45 | 31.96325 | 31.32184 | 36071 ft | 479 kts | 351° |
| 2026-05-09 15:45 | 32.02963 | 31.31487 | 36072 ft | 479 kts | 351° |
| 2026-05-09 15:46 | 32.09603 | 31.30793 | 36083 ft | 479 kts | 351° |
| 2026-05-09 15:46 | 32.16237 | 31.30101 | 36072 ft | 479 kts | 351° |
| 2026-05-09 15:47 | 32.22873 | 31.29395 | 36075 ft | 478 kts | 351° |
| 2026-05-09 15:47 | 32.29501 | 31.28674 | 36075 ft | 478 kts | 351° |
| 2026-05-09 15:48 | 32.36121 | 31.27955 | 36077 ft | 477 kts | 351° |
| 2026-05-09 15:48 | 32.42734 | 31.27238 | 36072 ft | 477 kts | 351° |
| 2026-05-09 15:49 | 32.49341 | 31.26521 | 36070 ft | 476 kts | 351° |
| 2026-05-09 15:49 | 32.55893 | 31.25536 | 36089 ft | 471 kts | 342° |
| 2026-05-09 15:50 | 32.62086 | 31.23181 | 36078 ft | 464 kts | 332° |
| 2026-05-09 15:50 | 32.67824 | 31.19856 | 36077 ft | 461 kts | 329° |
| 2026-05-09 15:51 | 32.73559 | 31.16434 | 36072 ft | 461 kts | 329° |
| 2026-05-09 15:51 | 32.79299 | 31.13047 | 36074 ft | 461 kts | 330° |
| 2026-05-09 15:52 | 32.87920 | 31.07994 | 36082 ft | 460 kts | 329° |
| 2026-05-09 15:53 | 32.93653 | 31.04629 | 36072 ft | 459 kts | 329° |
| 2026-05-09 15:53 | 32.99371 | 31.01266 | 36076 ft | 458 kts | 329° |
| 2026-05-09 15:54 | 33.05084 | 30.97903 | 36072 ft | 458 kts | 330° |
| 2026-05-09 15:54 | 33.11151 | 30.95452 | 36098 ft | 465 kts | 343° |
| 2026-05-09 15:55 | 33.17628 | 30.94563 | 36085 ft | 472 kts | 353° |
| 2026-05-09 15:55 | 33.24190 | 30.94379 | 36081 ft | 472 kts | 354° |
| 2026-05-09 15:56 | 33.30750 | 30.94207 | 36074 ft | 471 kts | 353° |
| 2026-05-09 15:56 | 33.37300 | 30.93986 | 36083 ft | 471 kts | 353° |
| 2026-05-09 15:57 | 33.43842 | 30.93741 | 36067 ft | 470 kts | 353° |
| 2026-05-09 15:57 | 33.50380 | 30.93493 | 36067 ft | 470 kts | 353° |
| 2026-05-09 15:58 | 33.56908 | 30.93247 | 36093 ft | 469 kts | 352° |
| 2026-05-09 15:58 | 33.63441 | 30.93001 | 36076 ft | 469 kts | 352° |
| 2026-05-09 15:59 | 33.69969 | 30.92756 | 36076 ft | 469 kts | 352° |
| 2026-05-09 15:59 | 33.76496 | 30.92510 | 36076 ft | 469 kts | 352° |
| 2026-05-09 16:00 | 33.83009 | 30.92265 | 36083 ft | 469 kts | 352° |
| 2026-05-09 16:00 | 33.89538 | 30.92018 | 36075 ft | 469 kts | 352° |
| 2026-05-09 16:01 | 33.96046 | 30.91770 | 36075 ft | 468 kts | 352° |
| 2026-05-09 16:01 | 34.02547 | 30.91427 | 36097 ft | 467 kts | 351° |
| 2026-05-09 16:02 | 34.09041 | 30.91048 | 36076 ft | 467 kts | 351° |
| 2026-05-09 16:02 | 34.18768 | 30.90506 | 36073 ft | 466 kts | 351° |
| 2026-05-09 16:03 | 34.25243 | 30.90149 | 36074 ft | 466 kts | 351° |
| 2026-05-09 16:03 | 34.31722 | 30.89817 | 36073 ft | 466 kts | 351° |
| 2026-05-09 16:04 | 34.38202 | 30.89494 | 36071 ft | 466 kts | 351° |
| 2026-05-09 16:04 | 34.44680 | 30.89167 | 36071 ft | 466 kts | 351° |
| 2026-05-09 16:05 | 34.51167 | 30.88837 | 36076 ft | 467 kts | 351° |
| 2026-05-09 16:05 | 34.57652 | 30.88507 | 36070 ft | 467 kts | 351° |
| 2026-05-09 16:06 | 34.64102 | 30.88194 | 36070 ft | 467 kts | 352° |
| 2026-05-09 16:06 | 34.70599 | 30.87988 | 36098 ft | 467 kts | 352° |
| 2026-05-09 16:07 | 34.77101 | 30.87802 | 36069 ft | 467 kts | 352° |
| 2026-05-09 16:07 | 34.83590 | 30.87603 | 36064 ft | 466 kts | 352° |
| 2026-05-09 16:08 | 34.90075 | 30.87395 | 36064 ft | 466 kts | 352° |
| 2026-05-09 16:08 | 34.96558 | 30.87185 | 36071 ft | 466 kts | 351° |
| 2026-05-09 16:09 | 35.03034 | 30.86976 | 36060 ft | 466 kts | 351° |
| 2026-05-09 16:09 | 35.09507 | 30.86768 | 36059 ft | 465 kts | 351° |
| 2026-05-09 16:10 | 35.15978 | 30.86559 | 36085 ft | 465 kts | 351° |
| 2026-05-09 16:10 | 35.22450 | 30.86345 | 36063 ft | 465 kts | 351° |
| 2026-05-09 16:11 | 35.28921 | 30.86123 | 36053 ft | 465 kts | 351° |
| 2026-05-09 16:11 | 35.35388 | 30.85902 | 36055 ft | 465 kts | 351° |
| 2026-05-09 16:12 | 35.41846 | 30.85680 | 36060 ft | 465 kts | 350° |
| 2026-05-09 16:12 | 35.48318 | 30.85459 | 36052 ft | 465 kts | 350° |
| 2026-05-09 16:13 | 35.54782 | 30.85238 | 36052 ft | 464 kts | 350° |
| 2026-05-09 16:13 | 35.61232 | 30.85017 | 36067 ft | 464 kts | 349° |
| 2026-05-09 16:14 | 35.67672 | 30.84685 | 36044 ft | 462 kts | 348° |
| 2026-05-09 16:14 | 35.74097 | 30.84261 | 36049 ft | 461 kts | 348° |
| 2026-05-09 16:15 | 35.80464 | 30.83854 | 36088 ft | 461 kts | 348° |
| 2026-05-09 16:15 | 35.86872 | 30.83459 | 36051 ft | 461 kts | 348° |
| 2026-05-09 16:16 | 35.93279 | 30.83067 | 36040 ft | 461 kts | 348° |
| 2026-05-09 16:16 | 35.99679 | 30.82673 | 36040 ft | 460 kts | 348° |
| 2026-05-09 16:17 | 36.06076 | 30.82298 | 36047 ft | 461 kts | 349° |
| 2026-05-09 16:17 | 36.12495 | 30.82092 | 36038 ft | 462 kts | 349° |
| 2026-05-09 16:18 | 36.18916 | 30.81921 | 36036 ft | 461 kts | 349° |
| 2026-05-09 16:18 | 36.25328 | 30.81725 | 36088 ft | 462 kts | 349° |
| 2026-05-09 16:19 | 36.31768 | 30.81516 | 36045 ft | 463 kts | 349° |
| 2026-05-09 16:19 | 36.38217 | 30.81308 | 36045 ft | 464 kts | 349° |
| 2026-05-09 16:20 | 36.44680 | 30.81096 | 36044 ft | 465 kts | 349° |
| 2026-05-09 16:20 | 36.51141 | 30.80866 | 36043 ft | 465 kts | 349° |
| 2026-05-09 16:21 | 36.57616 | 30.80633 | 36045 ft | 465 kts | 349° |
| 2026-05-09 16:21 | 36.64085 | 30.80402 | 36046 ft | 465 kts | 349° |
| 2026-05-09 16:22 | 36.70565 | 30.80170 | 36053 ft | 466 kts | 349° |
| 2026-05-09 16:22 | 36.76899 | 30.79944 | 36050 ft | 467 kts | 349° |
| 2026-05-09 16:23 | 36.83396 | 30.79712 | 36050 ft | 468 kts | 349° |
| 2026-05-09 16:23 | 36.89880 | 30.79479 | 36066 ft | 469 kts | 350° |
| 2026-05-09 16:24 | 36.96386 | 30.78962 | 36059 ft | 467 kts | 346° |
| 2026-05-09 16:24 | 37.02803 | 30.78137 | 36053 ft | 468 kts | 346° |
| 2026-05-09 16:25 | 37.08241 | 30.77430 | 36056 ft | 469 kts | 346° |
| 2026-05-09 16:25 | 37.14738 | 30.76615 | 36073 ft | 471 kts | 347° |
| 2026-05-09 16:26 | 37.21264 | 30.75813 | 36075 ft | 472 kts | 347° |
| 2026-05-09 16:26 | 37.27817 | 30.75006 | 36111 ft | 474 kts | 347° |
| 2026-05-09 16:27 | 37.34386 | 30.74196 | 36126 ft | 475 kts | 347° |
| 2026-05-09 16:27 | 37.40962 | 30.73380 | 36125 ft | 475 kts | 347° |
| 2026-05-09 16:28 | 37.47516 | 30.72451 | 36119 ft | 473 kts | 346° |
| 2026-05-09 16:28 | 37.54015 | 30.71444 | 36154 ft | 470 kts | 347° |
| 2026-05-09 16:29 | 37.60470 | 30.70493 | 36128 ft | 470 kts | 348° |
| 2026-05-09 16:29 | 37.66999 | 30.69695 | 36133 ft | 472 kts | 348° |
| 2026-05-09 16:30 | 37.73554 | 30.68918 | 36147 ft | 474 kts | 348° |
| 2026-05-09 16:30 | 37.80126 | 30.68112 | 36134 ft | 475 kts | 349° |
| 2026-05-09 16:31 | 37.86706 | 30.67294 | 36141 ft | 475 kts | 349° |
| 2026-05-09 16:31 | 37.93270 | 30.66430 | 36135 ft | 474 kts | 348° |
| 2026-05-09 16:32 | 37.99813 | 30.65475 | 36148 ft | 474 kts | 349° |
| 2026-05-09 16:32 | 38.06372 | 30.64620 | 36146 ft | 473 kts | 349° |
| 2026-05-09 16:33 | 38.12865 | 30.63448 | 36129 ft | 469 kts | 341° |
| 2026-05-09 16:33 | 38.19043 | 30.60958 | 36143 ft | 465 kts | 337° |
| 2026-05-09 16:34 | 38.25184 | 30.58319 | 36139 ft | 467 kts | 337° |
| 2026-05-09 16:34 | 38.31357 | 30.55701 | 36125 ft | 468 kts | 338° |
| 2026-05-09 16:35 | 38.37540 | 30.53103 | 36128 ft | 469 kts | 338° |
| 2026-05-09 16:35 | 38.43745 | 30.50499 | 36129 ft | 470 kts | 338° |
| 2026-05-09 16:36 | 38.56169 | 30.45269 | 36124 ft | 470 kts | 338° |
| 2026-05-09 16:37 | 38.62377 | 30.42648 | 36116 ft | 470 kts | 338° |
| 2026-05-09 16:37 | 38.68582 | 30.40023 | 36110 ft | 470 kts | 338° |
| 2026-05-09 16:38 | 38.74796 | 30.37389 | 36106 ft | 470 kts | 338° |
| 2026-05-09 16:38 | 38.81001 | 30.34755 | 36108 ft | 469 kts | 338° |
| 2026-05-09 16:39 | 38.87157 | 30.32136 | 36126 ft | 469 kts | 338° |
| 2026-05-09 16:39 | 38.93353 | 30.29495 | 36102 ft | 469 kts | 338° |
| 2026-05-09 16:40 | 38.99537 | 30.26855 | 36102 ft | 468 kts | 338° |